createdAt,value
2023-05-09T00:02:10.744Z,86.70
2023-05-09T00:06:20.899Z,86.90
2023-05-09T00:10:25.158Z,87.70
2023-05-09T00:14:27.917Z,88.00
2023-05-09T00:18:31.013Z,88.70
2023-05-09T00:22:33.897Z,88.90
2023-05-09T00:26:40.416Z,89.10
2023-05-09T00:30:43.128Z,89.40
2023-05-09T00:34:45.841Z,89.10
2023-05-09T00:38:48.981Z,89.50
2023-05-09T00:42:53.237Z,89.70
2023-05-09T00:46:56.110Z,90.00
2023-05-09T00:50:58.882Z,90.40
2023-05-09T00:55:03.282Z,90.40
2023-05-09T00:59:07.372Z,90.40
2023-05-09T01:03:10.522Z,90.30
2023-05-09T01:07:22.800Z,90.20
2023-05-09T01:11:37.245Z,90.20
2023-05-09T01:15:48.386Z,90.30
2023-05-09T01:20:05.675Z,90.30
2023-05-09T01:24:30.418Z,90.40
2023-05-09T01:28:56.768Z,90.40
2023-05-09T01:33:08.750Z,90.60
2023-05-09T01:37:14.140Z,90.60
2023-05-09T01:41:18.845Z,90.70
2023-05-09T01:45:22.496Z,90.70
2023-05-09T01:49:29.779Z,90.70
2023-05-09T01:53:33.087Z,90.80
2023-05-09T01:57:38.085Z,91.00
2023-05-09T02:01:41.138Z,91.10
2023-05-09T02:05:46.308Z,91.30
2023-05-09T02:09:51.996Z,91.50
2023-05-09T02:13:54.828Z,91.60
2023-05-09T02:17:58.096Z,91.80
2023-05-09T02:22:05.581Z,91.90
2023-05-09T02:26:12.258Z,92.30
2023-05-09T02:30:23.301Z,92.50
2023-05-09T02:34:26.532Z,92.80
2023-05-09T02:38:30.666Z,93.20
2023-05-09T02:42:33.378Z,93.40
2023-05-09T02:46:36.444Z,93.50
2023-05-09T02:50:39.499Z,93.80
2023-05-09T02:54:43.797Z,94.10
2023-05-09T02:58:51.085Z,94.50
2023-05-09T03:02:54.649Z,94.90
2023-05-09T03:06:57.516Z,95.10
2023-05-09T03:11:06.338Z,95.60
2023-05-09T03:15:10.403Z,95.90
2023-05-09T03:19:16.209Z,96.10
2023-05-09T03:23:19.111Z,96.40
2023-05-09T03:27:23.225Z,96.60
2023-05-09T03:31:27.015Z,96.70
2023-05-09T03:35:29.847Z,96.90
2023-05-09T03:39:33.091Z,97.40
2023-05-09T03:43:37.329Z,97.60
2023-05-09T03:47:40.225Z,97.90
2023-05-09T03:51:43.387Z,98.00
2023-05-09T03:55:50.532Z,97.90
2023-05-09T03:59:55.516Z,98.20
2023-05-09T04:04:00.601Z,98.30
2023-05-09T04:08:06.534Z,98.20
2023-05-09T04:12:09.771Z,98.30
2023-05-09T04:16:15.293Z,98.30
2023-05-09T04:20:18.520Z,98.40
2023-05-09T04:24:22.143Z,98.60
2023-05-09T04:28:25.118Z,98.50
2023-05-09T04:32:29.921Z,98.50
2023-05-09T04:36:33.778Z,99.00
2023-05-09T04:40:37.052Z,99.20
2023-05-09T04:44:40.062Z,99.10
2023-05-09T04:48:44.565Z,98.90
2023-05-09T04:52:47.329Z,98.70
2023-05-09T04:56:51.180Z,98.50
2023-05-09T05:00:54.657Z,98.40
2023-05-09T05:05:10.715Z,98.20
2023-05-09T05:09:17.401Z,97.90
2023-05-09T05:13:22.418Z,97.70
2023-05-09T05:17:41.732Z,97.20
2023-05-09T05:21:46.984Z,96.70
2023-05-09T05:25:50.106Z,96.20
2023-05-09T05:29:53.281Z,96.10
2023-05-09T05:33:56.900Z,95.80
2023-05-09T05:38:01.874Z,95.70
2023-05-09T05:42:05.134Z,93.10
2023-05-09T05:46:08.021Z,91.90
2023-05-09T05:50:12.276Z,91.20
2023-05-09T05:54:17.259Z,90.50
2023-05-09T05:58:20.528Z,89.10
2023-05-09T06:02:24.059Z,89.10
2023-05-09T06:06:28.477Z,90.00
2023-05-09T06:10:33.351Z,84.30
2023-05-09T06:14:36.348Z,85.00
2023-05-09T06:18:40.210Z,84.50
2023-05-09T06:22:45.091Z,83.30
2023-05-09T06:26:50.620Z,79.60
2023-05-09T06:30:53.345Z,78.70
2023-05-09T06:34:56.126Z,78.30
2023-05-09T06:38:59.128Z,77.00
2023-05-09T06:43:03.399Z,80.90
2023-05-09T06:47:06.313Z,78.90
2023-05-09T06:51:09.222Z,80.30
2023-05-09T06:55:12.130Z,82.70
2023-05-09T06:59:16.559Z,83.90
2023-05-09T07:03:19.351Z,85.40
2023-05-09T07:07:22.366Z,86.70
2023-05-09T07:11:25.515Z,88.20
2023-05-09T07:15:40.616Z,89.00
2023-05-09T07:19:45.244Z,89.50
2023-05-09T07:23:48.657Z,89.10
2023-05-09T07:27:51.576Z,88.70
2023-05-09T07:31:55.717Z,89.60
2023-05-09T07:35:59.931Z,87.00
2023-05-09T07:40:03.315Z,85.60
2023-05-09T07:44:06.376Z,86.50
2023-05-09T07:48:10.586Z,85.60
2023-05-09T07:52:13.525Z,86.10
2023-05-09T07:56:16.388Z,86.00
2023-05-09T08:00:23.528Z,86.60
2023-05-09T08:04:28.031Z,87.20
2023-05-09T08:08:30.968Z,88.20
2023-05-09T08:12:33.739Z,89.00
2023-05-09T08:16:36.629Z,90.00
2023-05-09T08:20:41.104Z,90.70
2023-05-09T08:24:43.844Z,90.30
2023-05-09T08:28:46.674Z,90.60
2023-05-09T08:32:50.099Z,90.50
2023-05-09T08:36:54.238Z,90.80
2023-05-09T08:41:01.329Z,90.80
2023-05-09T08:45:09.647Z,91.10
2023-05-09T08:49:12.902Z,90.90
2023-05-09T08:53:17.805Z,90.80
2023-05-09T08:57:20.945Z,90.70
2023-05-09T09:01:24.787Z,90.70
2023-05-09T09:05:40.688Z,90.60
2023-05-09T09:09:48.690Z,90.30
2023-05-09T09:13:53.813Z,89.70
2023-05-09T09:17:59.079Z,89.60
2023-05-09T09:22:05.444Z,88.90
2023-05-09T09:26:09.932Z,88.90
2023-05-09T09:30:14.346Z,88.20
2023-05-09T09:34:22.244Z,88.00
2023-05-09T09:38:26.766Z,87.30
2023-05-09T09:42:41.568Z,87.60
2023-05-09T09:46:45.803Z,86.20
2023-05-09T09:50:49.340Z,86.00
2023-05-09T09:54:52.208Z,84.80
2023-05-09T09:59:10.965Z,84.70
2023-05-09T10:03:16.873Z,84.30
2023-05-09T10:07:24.466Z,85.10
2023-05-09T10:11:27.394Z,83.50
2023-05-09T10:15:41.367Z,83.40
2023-05-09T10:19:50.664Z,80.60
2023-05-09T10:23:54.667Z,81.30
2023-05-09T10:28:01.920Z,80.80
2023-05-09T10:32:15.681Z,78.40
2023-05-09T10:36:20.582Z,78.90
2023-05-09T10:40:23.899Z,77.40
2023-05-09T10:44:27.379Z,77.50
2023-05-09T10:48:33.402Z,76.80
2023-05-09T10:52:36.366Z,76.20
2023-05-09T10:56:40.077Z,76.80
2023-05-09T11:00:43.899Z,74.90
2023-05-09T11:04:48.201Z,76.30
2023-05-09T11:08:51.172Z,76.20
2023-05-09T11:12:57.502Z,75.70
2023-05-09T11:17:02.839Z,75.10
2023-05-09T11:21:10.470Z,75.70
2023-05-09T11:25:15.289Z,74.30
2023-05-09T11:29:19.009Z,76.00
2023-05-09T11:33:25.675Z,75.00
2023-05-09T11:37:32.387Z,74.00
2023-05-09T11:41:45.060Z,73.30
2023-05-09T11:45:51.330Z,74.40
2023-05-09T11:49:57.337Z,73.80
2023-05-09T11:54:03.720Z,72.60
2023-05-09T11:58:11.652Z,71.60
2023-05-09T12:02:15.079Z,70.20
2023-05-09T12:06:21.313Z,70.70
2023-05-09T12:10:31.944Z,69.80
2023-05-09T12:14:39.195Z,71.00
2023-05-09T12:18:46.667Z,68.20
2023-05-09T12:22:54.338Z,66.40
2023-05-09T12:27:03.450Z,67.60
2023-05-09T12:31:08.186Z,67.80
2023-05-09T12:35:11.619Z,68.40
2023-05-09T12:39:18.298Z,66.90
2023-05-09T12:43:22.946Z,68.10
2023-05-09T12:47:28.921Z,69.00
2023-05-09T12:51:31.863Z,68.10
2023-05-09T12:55:45.068Z,67.00
2023-05-09T12:59:49.652Z,66.30
2023-05-09T13:03:53.362Z,65.30
2023-05-09T13:07:58.446Z,65.10
2023-05-09T13:12:02.892Z,64.70
2023-05-09T13:16:08.872Z,65.50
2023-05-09T13:20:13.477Z,66.20
2023-05-09T13:24:16.412Z,66.70
2023-05-09T13:28:19.157Z,66.00
2023-05-09T13:32:24.865Z,66.00
2023-05-09T13:36:27.712Z,66.50
2023-05-09T13:40:30.431Z,66.30
2023-05-09T13:44:33.246Z,66.20
2023-05-09T13:48:37.752Z,66.80
2023-05-09T13:52:40.619Z,67.00
2023-05-09T13:56:43.765Z,66.40
2023-05-09T14:00:46.599Z,67.40
2023-05-09T14:04:56.152Z,68.00
2023-05-09T14:08:58.926Z,67.20
2023-05-09T14:13:01.986Z,65.20
2023-05-09T14:17:04.879Z,63.00
2023-05-09T14:21:09.237Z,62.80
2023-05-09T14:25:12.463Z,63.60
2023-05-09T14:29:15.706Z,61.70
2023-05-09T14:33:18.532Z,62.50
2023-05-09T14:37:22.809Z,62.00
2023-05-09T14:41:25.942Z,61.70
2023-05-09T14:45:28.958Z,62.90
2023-05-09T14:49:31.905Z,63.20
2023-05-09T14:53:40.661Z,63.20
2023-05-09T14:57:43.530Z,61.60
2023-05-09T15:01:46.474Z,61.90
2023-05-09T15:05:50.407Z,62.60
2023-05-09T15:09:54.924Z,61.90
2023-05-09T15:13:57.888Z,63.70
2023-05-09T15:18:02.252Z,64.70
2023-05-09T15:22:06.111Z,64.50
2023-05-09T15:26:12.189Z,64.10
2023-05-09T15:30:15.808Z,65.00
2023-05-09T15:34:18.957Z,65.20
2023-05-09T15:38:21.770Z,66.70
2023-05-09T15:42:26.213Z,66.80
2023-05-09T15:46:29.837Z,67.00
2023-05-09T15:50:32.798Z,67.90
2023-05-09T15:54:36.006Z,68.30
2023-05-09T15:58:40.372Z,68.70
2023-05-09T16:02:44.083Z,68.70
2023-05-09T16:06:47.933Z,69.70
2023-05-09T16:10:51.833Z,69.10
2023-05-09T16:14:55.976Z,70.00
2023-05-09T16:18:58.719Z,69.50
2023-05-09T16:23:01.597Z,69.20
2023-05-09T16:27:04.673Z,69.60
2023-05-09T16:31:09.001Z,70.90
2023-05-09T16:35:12.490Z,71.50
2023-05-09T16:39:15.372Z,71.60
2023-05-09T16:43:20.049Z,72.60
2023-05-09T16:47:24.257Z,71.70
2023-05-09T16:51:27.376Z,72.00
2023-05-09T16:55:30.158Z,70.60
2023-05-09T16:59:33.064Z,70.70
2023-05-09T17:03:37.220Z,71.00
2023-05-09T17:07:39.984Z,72.10
2023-05-09T17:11:42.780Z,72.40
2023-05-09T17:15:45.655Z,73.40
2023-05-09T17:19:49.795Z,73.50
2023-05-09T17:23:53.923Z,73.40
2023-05-09T17:27:56.852Z,74.50
2023-05-09T17:32:01.500Z,75.50
2023-05-09T17:36:06.439Z,75.60
2023-05-09T17:40:10.465Z,76.10
2023-05-09T17:44:13.484Z,75.70
2023-05-09T17:48:16.481Z,76.00
2023-05-09T17:52:21.349Z,78.00
2023-05-09T17:56:24.499Z,78.90
2023-05-09T18:00:27.542Z,78.00
2023-05-09T18:04:32.842Z,78.90
2023-05-09T18:08:37.689Z,79.70
2023-05-09T18:12:40.925Z,80.50
2023-05-09T18:16:44.039Z,81.70
2023-05-09T18:20:47.526Z,81.80
2023-05-09T18:24:52.965Z,83.70
2023-05-09T18:28:55.939Z,83.60
2023-05-09T18:33:00.309Z,85.20
2023-05-09T18:37:03.527Z,87.10
2023-05-09T18:41:09.668Z,88.90
2023-05-09T18:45:14.387Z,90.20
2023-05-09T18:49:17.621Z,90.90
2023-05-09T18:53:20.754Z,91.50
2023-05-09T18:57:25.131Z,91.90
2023-05-09T19:01:28.539Z,92.40
2023-05-09T19:05:31.580Z,92.80
2023-05-09T19:09:34.645Z,93.10
2023-05-09T19:13:40.841Z,93.60
2023-05-09T19:17:44.121Z,93.70
2023-05-09T19:21:49.089Z,94.00
2023-05-09T19:25:53.890Z,94.40
2023-05-09T19:29:59.473Z,94.80
2023-05-09T19:34:02.496Z,94.90
2023-05-09T19:38:05.789Z,95.30
2023-05-09T19:42:09.115Z,95.60
2023-05-09T19:46:13.473Z,95.80
2023-05-09T19:50:16.857Z,96.10
2023-05-09T19:54:20.158Z,96.50
2023-05-09T19:58:23.168Z,97.40
2023-05-09T20:02:27.566Z,97.90
2023-05-09T20:06:30.778Z,98.30
2023-05-09T20:10:34.140Z,98.70
2023-05-09T20:14:37.764Z,99.60
2023-05-09T20:18:42.221Z,99.90
2023-05-09T20:22:45.499Z,99.90
2023-05-09T20:26:48.639Z,99.90
2023-05-09T20:30:51.645Z,99.90
2023-05-09T20:35:03.320Z,99.90
2023-05-09T20:39:06.647Z,99.90
2023-05-09T20:43:09.853Z,99.90
2023-05-09T20:47:12.875Z,99.90
2023-05-09T20:51:17.201Z,99.90
2023-05-09T20:55:20.333Z,99.90
2023-05-09T20:59:23.128Z,99.90
2023-05-09T21:03:26.117Z,99.90
2023-05-09T21:07:30.778Z,99.90
2023-05-09T21:11:33.715Z,99.90
2023-05-09T21:15:36.587Z,99.90
2023-05-09T21:19:39.411Z,99.90
2023-05-09T21:23:43.511Z,99.90
2023-05-09T21:27:46.263Z,99.90
2023-05-09T21:31:49.052Z,99.90
2023-05-09T21:35:51.762Z,99.90
2023-05-09T21:39:55.922Z,99.90
2023-05-09T21:43:58.646Z,99.90
2023-05-09T21:48:01.649Z,99.90
2023-05-09T21:52:05.049Z,99.90
2023-05-09T21:56:09.553Z,99.90
2023-05-09T22:00:15.320Z,99.90
2023-05-09T22:04:18.328Z,99.90
2023-05-09T22:08:21.343Z,99.90
2023-05-09T22:12:26.083Z,99.90
2023-05-09T22:16:40.538Z,99.90
2023-05-09T22:20:44.723Z,99.90
2023-05-09T22:24:47.565Z,99.90
2023-05-09T22:28:51.828Z,99.90
2023-05-09T22:32:55.130Z,99.90
2023-05-09T22:36:58.000Z,99.90
2023-05-09T22:41:00.848Z,99.90
2023-05-09T22:45:05.855Z,99.90
2023-05-09T22:49:08.844Z,99.90
2023-05-09T22:53:11.940Z,99.90
2023-05-09T22:57:17.670Z,99.90
2023-05-09T23:01:22.017Z,99.90
2023-05-09T23:05:24.815Z,99.90
2023-05-09T23:09:28.325Z,99.90
2023-05-09T23:13:31.246Z,99.90
2023-05-09T23:17:35.510Z,99.90
2023-05-09T23:21:38.281Z,99.90
2023-05-09T23:25:41.093Z,99.90
2023-05-09T23:29:44.305Z,99.90
2023-05-09T23:33:48.923Z,99.90
2023-05-09T23:37:51.838Z,99.90
2023-05-09T23:41:54.560Z,99.90
2023-05-09T23:45:57.527Z,99.90
2023-05-09T23:50:01.705Z,99.90
2023-05-09T23:54:04.745Z,99.90
2023-05-09T23:58:10.797Z,99.90
